Time;durP1;ratioP1;P1;durP2;ratioP2;P2;SDS_P1;SDS_P2;PMS_P1;PMS_P2;Temp;Humidity;BMP_temperature;BMP_pressure;BME280_temperature;BME280_humidity;BME280_pressure;Samples;Min_cycle;Max_cycle;Signal;HPM_P1;HPM_P2
2023/05/28 00:02:09;;;;;;;12.90;4.70;;;;;;;15.44;52.85;96657.31;5018757;28;20046;-68
2023/05/28 00:04:36;;;;;;;10.52;4.22;;;;;;;15.45;52.67;96647.88;5022898;28;20064;-68
2023/05/28 00:07:01;;;;;;;11.63;3.90;;;;;;;15.44;52.67;96656.53;5021905;28;20045;-69
2023/05/28 00:09:27;;;;;;;11.55;4.40;;;;;;;15.41;52.50;96640.78;5015479;28;20379;-69
2023/05/28 00:12:01;;;;;;;10.25;4.32;;;;;;;15.31;53.53;96652.66;5022645;28;20048;-69
2023/05/28 00:14:27;;;;;;;18.90;4.60;;;;;;;15.37;52.75;96642.78;5018180;28;20053;-68
2023/05/28 00:16:52;;;;;;;14.23;4.13;;;;;;;15.31;53.36;96636.88;5020834;28;20061;-69
2023/05/28 00:19:18;;;;;;;12.88;4.32;;;;;;;15.28;53.37;96634.91;5016907;28;20123;-68
2023/05/28 00:21:43;;;;;;;11.07;4.25;;;;;;;15.24;53.51;96628.63;5020385;28;20080;-68
2023/05/28 00:24:08;;;;;;;13.43;4.18;;;;;;;15.22;53.50;96631.78;5017709;28;20144;-69
2023/05/28 00:26:34;;;;;;;11.25;4.97;;;;;;;15.22;53.31;96625.47;5021847;28;20048;-69
2023/05/28 00:28:59;;;;;;;9.30;4.07;;;;;;;15.21;53.81;96632.16;5021124;28;20084;-69
2023/05/28 00:31:31;;;;;;;10.57;3.55;;;;;;;15.18;53.74;96627.44;5021626;28;20133;-68
2023/05/28 00:33:56;;;;;;;11.50;4.25;;;;;;;15.19;53.77;96618.78;5021680;28;20120;-68
2023/05/28 00:36:22;;;;;;;10.10;3.60;;;;;;;15.10;53.86;96629.44;5016336;28;20092;-69
2023/05/28 00:38:48;;;;;;;13.10;4.63;;;;;;;15.24;53.69;96626.63;5019868;28;20152;-68
2023/05/28 00:41:22;;;;;;;11.43;3.85;;;;;;;15.16;53.79;96632.56;5015083;28;20401;-68
2023/05/28 00:43:54;;;;;;;14.35;3.92;;;;;;;15.06;54.10;96634.19;5022063;28;20037;-69
2023/05/28 00:46:22;;;;;;;11.02;3.88;;;;;;;15.00;54.63;96628.28;5018765;28;20064;-68
2023/05/28 00:48:48;;;;;;;11.95;4.30;;;;;;;14.93;54.27;96625.56;5021429;28;20051;-69
2023/05/28 00:51:14;;;;;;;12.48;4.35;;;;;;;14.89;55.15;96624.75;5017078;28;20088;-69
2023/05/28 00:53:42;;;;;;;13.35;4.40;;;;;;;14.84;55.15;96622.41;5021861;28;20037;-67
2023/05/28 00:56:11;;;;;;;10.90;4.00;;;;;;;14.95;54.70;96628.69;5017518;28;20047;-69
2023/05/28 00:58:43;;;;;;;11.10;4.25;;;;;;;14.97;54.02;96626.31;5020944;28;20121;-69
2023/05/28 01:01:12;;;;;;;10.32;4.35;;;;;;;14.85;55.12;96626.75;5016447;28;20041;-69
2023/05/28 01:03:39;;;;;;;8.43;3.78;;;;;;;14.69;55.82;96627.16;5021728;28;20107;-69
2023/05/28 01:06:09;;;;;;;10.63;4.88;;;;;;;14.72;55.21;96618.88;5016702;28;20042;-69
2023/05/28 01:08:37;;;;;;;12.18;4.53;;;;;;;14.59;56.39;96628.75;5021459;28;20045;-69
2023/05/28 01:11:02;;;;;;;12.75;4.63;;;;;;;14.42;57.53;96612.97;5019936;28;20548;-70
2023/05/28 01:13:28;;;;;;;11.75;4.60;;;;;;;14.27;57.87;96615.72;5018641;28;20045;-69
2023/05/28 01:15:55;;;;;;;9.25;4.05;;;;;;;14.13;58.68;96613.75;5022029;28;20052;-69
2023/05/28 01:18:20;;;;;;;12.18;4.15;;;;;;;14.05;59.68;96612.16;5018049;28;20041;-68
2023/05/28 01:20:46;;;;;;;10.88;4.10;;;;;;;13.96;60.56;96607.03;5026436;28;20051;-69
2023/05/28 01:23:20;;;;;;;12.55;4.72;;;;;;;14.06;60.08;96612.94;5017803;28;20051;-69
2023/05/28 01:25:51;;;;;;;10.43;4.13;;;;;;;13.93;60.65;96605.06;5023190;28;20049;-68
2023/05/28 01:28:16;;;;;;;11.40;4.57;;;;;;;13.81;61.90;96599.94;5021558;28;20139;-69
2023/05/28 01:30:43;;;;;;;13.40;4.00;;;;;;;13.85;61.41;96599.94;5026363;28;20065;-68
2023/05/28 01:33:10;;;;;;;12.40;4.88;;;;;;;13.85;61.25;96595.22;5020479;28;20129;-69
2023/05/28 01:35:37;;;;;;;12.57;4.40;;;;;;;13.94;61.54;96601.13;5026174;28;20045;-68
2023/05/28 01:38:03;;;;;;;9.02;4.30;;;;;;;13.99;61.85;96594.47;5022720;28;20128;-69
2023/05/28 01:40:31;;;;;;;15.43;4.30;;;;;;;14.11;62.43;96590.53;5023988;28;20453;-69
2023/05/28 01:42:57;;;;;;;10.85;4.28;;;;;;;14.12;62.22;96592.13;5024600;28;20041;-69
2023/05/28 01:45:24;;;;;;;12.00;4.50;;;;;;;14.07;62.12;96590.53;5020851;28;20049;-68
2023/05/28 01:47:50;;;;;;;9.75;4.25;;;;;;;13.94;62.16;96592.09;5023343;28;20069;-70
2023/05/28 01:50:16;;;;;;;10.82;4.20;;;;;;;13.83;62.83;96591.25;5018489;28;20037;-69
2023/05/28 01:52:42;;;;;;;12.73;4.53;;;;;;;13.62;64.50;96594.78;5025923;28;20053;-69
2023/05/28 01:55:08;;;;;;;13.05;3.83;;;;;;;13.39;67.18;96587.63;5019956;28;20037;-70
2023/05/28 01:57:38;;;;;;;11.27;4.75;;;;;;;13.25;68.86;96593.81;5022487;28;20052;-69
2023/05/28 02:00:06;;;;;;;10.68;4.57;;;;;;;13.12;68.36;96598.09;5021900;28;20113;-70
2023/05/28 02:02:32;;;;;;;16.60;4.78;;;;;;;13.02;70.34;96588.63;5022971;28;20111;-69
2023/05/28 02:04:58;;;;;;;11.63;4.63;;;;;;;12.98;72.19;96599.59;5025915;28;20034;-69
2023/05/28 02:07:23;;;;;;;9.65;4.45;;;;;;;12.87;73.36;96593.25;5020461;28;20520;-69
2023/05/28 02:09:49;;;;;;;13.80;4.80;;;;;;;12.82;75.12;96593.63;5021941;28;20629;-70
2023/05/28 02:12:15;;;;;;;19.77;4.95;;;;;;;12.94;75.98;96596.03;5019903;28;20140;-69
2023/05/28 02:14:41;;;;;;;15.80;4.25;;;;;;;12.84;75.96;96598.72;5024556;28;20038;-69
2023/05/28 02:17:08;;;;;;;9.43;4.15;;;;;;;12.78;75.36;96590.88;5019721;28;20037;-69
2023/05/28 02:19:34;;;;;;;15.73;5.53;;;;;;;12.70;75.31;96591.97;5022457;28;20124;-69
2023/05/28 02:21:59;;;;;;;10.80;4.32;;;;;;;12.67;76.61;96595.47;5024801;28;20132;-69
2023/05/28 02:24:25;;;;;;;13.23;4.60;;;;;;;12.67;78.54;96592.72;5019636;28;20068;-67
2023/05/28 02:26:51;;;;;;;11.15;5.03;;;;;;;12.69;78.30;96595.88;5024264;28;20045;-67
2023/05/28 02:29:16;;;;;;;9.90;4.50;;;;;;;12.61;77.82;96592.31;5017991;28;20087;-68
2023/05/28 02:31:42;;;;;;;14.55;5.55;;;;;;;12.53;77.33;96593.44;5024771;28;20363;-68
2023/05/28 02:34:07;;;;;;;16.05;6.05;;;;;;;12.34;78.57;96597.22;5019579;28;20040;-69
2023/05/28 02:36:33;;;;;;;14.45;6.00;;;;;;;12.30;79.78;96601.91;5026360;28;20109;-68
2023/05/28 02:38:58;;;;;;;12.75;6.45;;;;;;;12.22;80.26;96590.06;5036812;28;20072;-68
2023/05/28 02:41:26;;;;;;;12.68;5.88;;;;;;;12.23;81.55;96590.88;5027431;28;20570;-68
2023/05/28 02:43:53;;;;;;;15.30;6.05;;;;;;;12.20;82.25;96591.63;5024363;28;20052;-67
2023/05/28 02:46:18;;;;;;;8.07;5.40;;;;;;;12.14;81.78;96598.63;5015983;28;20056;-70
2023/05/28 02:48:45;;;;;;;12.75;5.97;;;;;;;12.14;82.65;96596.66;5022518;28;20390;-70
2023/05/28 02:51:11;;;;;;;14.98;5.28;;;;;;;12.04;81.39;96594.63;5016546;28;20045;-67
2023/05/28 02:53:36;;;;;;;15.90;5.47;;;;;;;12.03;82.91;96595.81;5024121;28;20045;-69
2023/05/28 02:56:02;;;;;;;11.90;5.20;;;;;;;11.98;82.93;96598.88;5022918;28;20406;-69
2023/05/28 02:58:32;;;;;;;15.13;5.63;;;;;;;11.86;83.63;96611.66;5003325;28;20052;-69
2023/05/28 03:00:57;;;;;;;13.45;5.47;;;;;;;11.92;84.24;96603.94;5024179;28;20056;-69
2023/05/28 03:03:22;;;;;;;13.52;6.00;;;;;;;11.90;85.54;96603.50;5018720;28;20522;-69
2023/05/28 03:05:49;;;;;;;11.02;4.88;;;;;;;11.88;85.57;96602.28;5023616;28;20087;-69
2023/05/28 03:08:14;;;;;;;11.73;6.18;;;;;;;11.90;84.78;96605.44;5016600;28;20048;-69
2023/05/28 03:10:40;;;;;;;12.30;5.25;;;;;;;11.87;84.11;96612.47;5023793;28;20045;-69
2023/05/28 03:13:05;;;;;;;11.55;5.50;;;;;;;11.85;84.19;96614.81;5018480;28;20041;-68
2023/05/28 03:15:31;;;;;;;14.25;5.13;;;;;;;11.83;85.01;96614.41;5023593;28;20042;-68
2023/05/28 03:17:56;;;;;;;15.60;6.38;;;;;;;11.73;85.87;96612.34;5023843;28;20129;-68
2023/05/28 03:20:21;;;;;;;19.23;6.10;;;;;;;11.59;86.38;96616.47;5018659;28;20049;-68
2023/05/28 03:22:49;;;;;;;13.50;5.35;;;;;;;11.53;87.41;96615.25;5023199;28;20092;-68
2023/05/28 03:25:14;;;;;;;16.77;5.38;;;;;;;11.49;87.75;96611.69;5016566;28;20057;-68
2023/05/28 03:27:39;;;;;;;12.95;5.60;;;;;;;11.53;88.61;96618.00;5023449;28;20091;-68
2023/05/28 03:30:09;;;;;;;14.15;6.03;;;;;;;11.62;88.37;96617.69;5017899;28;20041;-67
2023/05/28 03:32:34;;;;;;;15.85;5.80;;;;;;;11.59;87.96;96615.69;5023778;28;20103;-68
2023/05/28 03:34:59;;;;;;;10.85;5.53;;;;;;;11.84;86.13;96611.25;5021633;28;20049;-68
2023/05/28 03:37:26;;;;;;;9.65;4.90;;;;;;;11.74;85.35;96611.16;5018320;28;20079;-68
2023/05/28 03:39:53;;;;;;;12.40;6.10;;;;;;;11.89;85.00;96614.84;5023788;28;20041;-68
2023/05/28 03:42:18;;;;;;;14.07;5.45;;;;;;;11.86;85.61;96619.13;5015949;28;20502;-68
2023/05/28 03:44:44;;;;;;;20.08;5.95;;;;;;;11.97;85.30;96622.78;5023159;28;20077;-68
2023/05/28 03:47:09;;;;;;;11.75;5.32;;;;;;;12.03;84.73;96617.75;5017899;28;20140;-68
2023/05/28 03:49:35;;;;;;;11.82;5.25;;;;;;;12.09;85.81;96607.22;5022590;28;20033;-67
2023/05/28 03:52:00;;;;;;;12.43;5.20;;;;;;;12.10;84.55;96617.00;5023044;28;20045;-68
2023/05/28 03:54:25;;;;;;;12.77;5.30;;;;;;;12.07;85.21;96615.03;5018678;28;20038;-68
2023/05/28 03:56:51;;;;;;;15.93;5.90;;;;;;;12.02;85.58;96624.41;5022726;28;20046;-68
2023/05/28 03:59:16;;;;;;;10.80;5.20;;;;;;;11.94;85.45;96631.78;5015768;28;20064;-68
2023/05/28 04:01:42;;;;;;;12.57;5.40;;;;;;;11.85;86.68;96636.75;5022555;28;20057;-69
2023/05/28 04:04:07;;;;;;;13.82;5.65;;;;;;;11.79;88.69;96632.75;5017440;28;20038;-69
2023/05/28 04:06:32;;;;;;;14.65;5.60;;;;;;;11.96;88.24;96636.91;5021931;28;20044;-68
2023/05/28 04:08:58;;;;;;;16.67;5.78;;;;;;;12.08;87.23;96633.84;5036253;28;20050;-69
2023/05/28 04:11:24;;;;;;;13.20;6.00;;;;;;;12.13;86.97;96630.78;5017077;28;20042;-69
2023/05/28 04:13:51;;;;;;;14.95;4.93;;;;;;;12.09;87.54;96629.97;5022217;28;20394;-69
2023/05/28 04:16:16;;;;;;;12.88;5.88;;;;;;;12.08;88.24;96630.34;5017908;28;20466;-68
2023/05/28 04:18:42;;;;;;;14.20;5.15;;;;;;;12.16;87.74;96635.50;5022269;28;20045;-69
2023/05/28 04:21:07;;;;;;;16.00;5.47;;;;;;;12.50;86.63;96629.91;5016344;28;20044;-69
2023/05/28 04:23:32;;;;;;;14.63;5.65;;;;;;;12.75;83.93;96643.84;5022676;28;20132;-68
2023/05/28 04:25:58;;;;;;;12.30;5.00;;;;;;;12.92;84.52;96636.09;5022522;28;20045;-69
2023/05/28 04:28:27;;;;;;;13.50;5.35;;;;;;;12.97;82.84;96635.72;5031226;28;20203;-69
2023/05/28 04:30:55;;;;;;;11.63;5.28;;;;;;;13.06;83.82;96635.38;5020673;28;20037;-67
2023/05/28 04:33:21;;;;;;;16.98;5.93;;;;;;;13.31;82.66;96639.06;5016800;28;22173;-68
2023/05/28 04:35:48;;;;;;;12.73;5.20;;;;;;;13.38;78.52;96641.09;5021412;28;20077;-69
2023/05/28 04:38:13;;;;;;;10.52;5.00;;;;;;;13.54;81.26;96646.22;5017670;28;20061;-67
2023/05/28 04:40:39;;;;;;;13.15;5.25;;;;;;;13.79;80.45;96640.81;5023939;28;20033;-70
2023/05/28 04:43:05;;;;;;;14.95;5.28;;;;;;;14.08;79.90;96651.88;5020813;28;20052;-70
2023/05/28 04:45:32;;;;;;;12.95;5.20;;;;;;;14.39;78.05;96647.63;5021317;28;20034;-69
2023/05/28 04:47:57;;;;;;;13.23;5.25;;;;;;;14.58;75.98;96640.16;5022566;28;20140;-69
2023/05/28 04:50:22;;;;;;;12.10;5.50;;;;;;;14.79;75.86;96645.66;5017375;28;20959;-69
2023/05/28 04:52:48;;;;;;;10.25;4.75;;;;;;;14.95;75.37;96642.47;5022191;28;20041;-70
2023/05/28 04:55:14;;;;;;;9.32;4.72;;;;;;;15.88;71.78;96643.34;5016071;28;20132;-69
2023/05/28 04:57:39;;;;;;;12.70;4.82;;;;;;;16.97;66.34;96647.72;5022141;28;20283;-69
2023/05/28 05:00:06;;;;;;;12.82;5.50;;;;;;;17.77;61.34;96651.16;5016861;28;20038;-69
2023/05/28 05:02:32;;;;;;;13.75;5.20;;;;;;;18.53;58.26;96660.00;5021572;28;20382;-69
2023/05/28 05:04:57;;;;;;;12.55;4.65;;;;;;;18.69;58.30;96655.78;5036853;28;20046;-68
2023/05/28 05:07:22;;;;;;;12.52;4.53;;;;;;;19.32;56.08;96657.91;5017445;28;20638;-69
2023/05/28 05:09:48;;;;;;;13.75;4.80;;;;;;;20.14;52.75;96649.88;5022162;28;20065;-69
2023/05/28 05:12:13;;;;;;;11.38;4.13;;;;;;;21.27;49.36;96655.13;5016345;28;20535;-69
2023/05/28 05:14:39;;;;;;;12.10;4.43;;;;;;;21.50;45.69;96644.97;5021385;28;20439;-69
2023/05/28 05:17:06;;;;;;;13.18;4.50;;;;;;;20.93;44.46;96655.63;5017265;28;20526;-69
2023/05/28 05:19:32;;;;;;;12.30;5.13;;;;;;;18.10;51.69;96655.09;5023143;28;20044;-69
2023/05/28 05:21:57;;;;;;;12.50;5.05;;;;;;;17.18;55.63;96650.25;5024848;28;20044;-68
2023/05/28 05:24:22;;;;;;;10.82;5.20;;;;;;;16.97;56.87;96658.78;5016780;28;20791;-68
2023/05/28 05:26:48;;;;;;;8.80;4.45;;;;;;;17.77;54.17;96659.47;5021234;28;20128;-68
2023/05/28 05:29:13;;;;;;;12.75;4.93;;;;;;;18.23;53.41;96660.06;5016099;28;20040;-68
2023/05/28 05:31:39;;;;;;;16.17;5.38;;;;;;;18.02;52.56;96652.84;5021156;28;20080;-68
2023/05/28 05:34:05;;;;;;;14.00;4.78;;;;;;;16.33;57.93;96649.00;5015729;28;20092;-68
2023/05/28 05:36:30;;;;;;;15.88;4.88;;;;;;;16.99;56.07;96656.38;5021084;28;20053;-68
2023/05/28 05:38:56;;;;;;;15.35;5.13;;;;;;;17.47;54.40;96654.69;5020777;28;20048;-68
2023/05/28 05:41:21;;;;;;;16.33;5.43;;;;;;;16.17;59.02;96657.78;5013222;28;20048;-68
2023/05/28 05:43:47;;;;;;;18.02;5.35;;;;;;;17.65;55.36;96660.03;5019561;28;20458;-68
2023/05/28 05:46:12;;;;;;;14.38;4.97;;;;;;;16.97;55.63;96659.56;5017449;28;20033;-68
2023/05/28 05:48:37;;;;;;;12.35;5.35;;;;;;;17.02;57.20;96655.56;5021062;28;20092;-68
2023/05/28 05:51:03;;;;;;;15.05;5.32;;;;;;;16.57;58.08;96663.84;5019303;28;20037;-69
2023/05/28 05:53:29;;;;;;;15.07;5.45;;;;;;;16.13;61.65;96660.56;5019921;28;20037;-68
2023/05/28 05:55:54;;;;;;;11.20;5.53;;;;;;;16.16;61.00;96657.00;5020749;28;20049;-68
2023/05/28 05:58:20;;;;;;;12.48;5.20;;;;;;;17.10;57.45;96659.03;5015852;28;20567;-68
2023/05/28 06:00:47;;;;;;;12.60;5.25;;;;;;;18.14;53.76;96669.69;5021116;28;20033;-68
2023/05/28 06:03:14;;;;;;;14.50;5.40;;;;;;;17.67;55.05;96666.72;5016171;28;20653;-68
2023/05/28 06:05:39;;;;;;;15.32;5.10;;;;;;;17.23;55.20;96665.59;5021365;28;20045;-68
2023/05/28 06:08:05;;;;;;;12.32;5.15;;;;;;;18.08;55.43;96668.59;5016180;28;20045;-69
2023/05/28 06:10:30;;;;;;;11.20;4.97;;;;;;;17.80;55.44;96674.47;5010012;28;20132;-68
2023/05/28 06:12:56;;;;;;;11.93;4.75;;;;;;;18.47;52.91;96672.75;5012735;28;20041;-68
2023/05/28 06:15:22;;;;;;;11.13;4.68;;;;;;;18.37;53.83;96676.50;5019108;28;20056;-68
2023/05/28 06:17:48;;;;;;;11.68;4.90;;;;;;;18.48;52.91;96684.66;5024599;28;20041;-68
2023/05/28 06:20:13;;;;;;;14.30;5.07;;;;;;;18.31;53.66;96681.75;5019281;28;20045;-68
2023/05/28 06:22:39;;;;;;;12.20;5.03;;;;;;;17.51;55.60;96674.81;5024142;28;20048;-68
2023/05/28 06:25:07;;;;;;;16.55;5.82;;;;;;;17.40;56.01;96674.94;5019108;28;20045;-69
2023/05/28 06:27:32;;;;;;;14.30;5.32;;;;;;;16.77;57.46;96672.34;5007071;28;20126;-68
2023/05/28 06:29:58;;;;;;;16.17;5.22;;;;;;;17.52;57.56;96676.38;5024666;28;20080;-68
2023/05/28 06:32:23;;;;;;;12.90;4.97;;;;;;;17.95;57.56;96670.34;5017365;28;20045;-68
2023/05/28 06:34:48;;;;;;;15.40;5.38;;;;;;;17.54;57.33;96665.69;5022082;28;20417;-68
2023/05/28 06:37:14;;;;;;;13.63;4.97;;;;;;;17.57;56.44;96673.16;5034389;28;20139;-68
2023/05/28 06:39:39;;;;;;;14.82;5.50;;;;;;;18.13;56.08;96664.56;5024564;28;20057;-68
2023/05/28 06:42:07;;;;;;;12.40;4.85;;;;;;;17.24;55.74;96655.34;5018804;28;20548;-69
2023/05/28 06:44:33;;;;;;;19.80;5.80;;;;;;;17.19;56.29;96662.09;5024059;28;20060;-68
2023/05/28 06:46:59;;;;;;;14.50;5.82;;;;;;;17.16;57.26;96660.97;5022740;28;20034;-68
2023/05/28 06:49:24;;;;;;;12.57;5.53;;;;;;;16.86;58.58;96663.63;5017331;28;20060;-68
2023/05/28 06:51:50;;;;;;;13.73;5.70;;;;;;;16.78;58.68;96666.44;5024110;28;20048;-67
2023/05/28 06:54:16;;;;;;;14.40;5.18;;;;;;;17.50;56.90;96654.66;5019805;28;20086;-69
2023/05/28 06:56:41;;;;;;;11.90;5.00;;;;;;;17.62;56.40;96658.06;5024135;28;20129;-69
2023/05/28 06:59:07;;;;;;;12.13;5.28;;;;;;;18.40;53.71;96658.22;5019163;28;20056;-70
2023/05/28 07:01:32;;;;;;;13.20;5.88;;;;;;;17.61;55.70;96653.72;5024429;28;20474;-70
2023/05/28 07:03:57;;;;;;;12.80;4.80;;;;;;;18.91;53.37;96659.81;5022963;28;20054;-69
2023/05/28 07:06:23;;;;;;;12.38;4.97;;;;;;;18.90;53.54;96663.78;5018158;28;20806;-69
2023/05/28 07:08:48;;;;;;;17.30;5.45;;;;;;;19.12;51.63;96657.06;5023164;28;20535;-69
2023/05/28 07:11:14;;;;;;;12.35;4.63;;;;;;;19.39;52.82;96660.53;5018276;28;20069;-70
2023/05/28 07:13:39;;;;;;;13.07;4.88;;;;;;;18.18;54.10;96658.53;5029418;28;20474;-69
2023/05/28 07:16:06;;;;;;;17.15;5.55;;;;;;;18.39;55.41;96660.22;5018685;28;20049;-69
2023/05/28 07:18:34;;;;;;;13.90;5.05;;;;;;;20.04;49.74;96653.66;5023218;28;20049;-69
2023/05/28 07:21:00;;;;;;;10.85;4.90;;;;;;;19.36;52.47;96649.50;5022212;28;20064;-70
2023/05/28 07:23:25;;;;;;;13.02;5.43;;;;;;;19.55;51.77;96653.47;5017748;28;20045;-68
2023/05/28 07:25:50;;;;;;;10.85;5.32;;;;;;;19.80;49.99;96656.56;5022866;28;20129;-68
2023/05/28 07:28:16;;;;;;;15.23;4.93;;;;;;;18.49;53.25;96661.25;5018042;28;20046;-68
2023/05/28 07:30:42;;;;;;;12.02;5.22;;;;;;;18.30;54.88;96659.97;5038659;28;20140;-68
2023/05/28 07:33:08;;;;;;;10.75;5.00;;;;;;;18.58;53.67;96653.19;5024621;28;20530;-68
2023/05/28 07:35:33;;;;;;;12.63;5.38;;;;;;;18.48;54.91;96656.94;5027812;28;20056;-68
2023/05/28 07:38:01;;;;;;;12.40;5.10;;;;;;;19.47;52.74;96653.63;5021335;28;20045;-68
2023/05/28 07:40:26;;;;;;;13.95;5.40;;;;;;;18.99;52.52;96643.81;5019207;28;20052;-68
2023/05/28 07:42:52;;;;;;;17.13;5.22;;;;;;;19.35;53.11;96654.25;5037761;28;20410;-68
2023/05/28 07:45:17;;;;;;;13.98;5.40;;;;;;;18.58;55.52;96649.63;5017050;28;20482;-67
2023/05/28 07:47:42;;;;;;;14.63;5.90;;;;;;;19.01;53.80;96652.50;5022817;28;20046;-69
2023/05/28 07:50:09;;;;;;;13.15;5.30;;;;;;;20.37;50.95;96648.19;5018437;28;20129;-67
2023/05/28 07:52:36;;;;;;;12.23;4.68;;;;;;;19.21;53.50;96638.66;5023112;28;20492;-68
2023/05/28 07:55:03;;;;;;;16.23;5.53;;;;;;;19.51;52.57;96642.44;5026743;28;20060;-70
2023/05/28 07:57:29;;;;;;;11.88;5.10;;;;;;;20.07;50.50;96636.13;5035001;28;20041;-68
2023/05/28 07:59:55;;;;;;;13.20;5.72;;;;;;;19.12;51.97;96646.75;5022907;28;20510;-66
2023/05/28 08:02:21;;;;;;;16.33;5.53;;;;;;;19.35;52.78;96651.47;5010482;28;20486;-67
2023/05/28 08:04:48;;;;;;;16.52;5.60;;;;;;;19.60;52.67;96641.88;5022598;28;20038;-67
2023/05/28 08:07:14;;;;;;;14.55;5.63;;;;;;;19.39;52.02;96651.41;5016400;28;20068;-68
2023/05/28 08:09:41;;;;;;;15.45;6.00;;;;;;;19.49;53.23;96647.66;5022636;28;20091;-70
2023/05/28 08:12:07;;;;;;;14.55;5.10;;;;;;;19.46;53.07;96646.53;5022792;28;20045;-66
2023/05/28 08:14:32;;;;;;;12.13;5.88;;;;;;;18.93;53.63;96648.28;5021671;28;20037;-66
2023/05/28 08:16:58;;;;;;;16.35;5.53;;;;;;;19.93;51.76;96642.78;5021592;28;20536;-66
2023/05/28 08:19:23;;;;;;;15.13;6.43;;;;;;;19.76;53.10;96641.19;5017117;28;20488;-68
2023/05/28 08:21:49;;;;;;;12.68;5.75;;;;;;;19.82;52.70;96643.00;5022300;28;20132;-72
2023/05/28 08:24:16;;;;;;;15.82;5.82;;;;;;;19.73;51.98;96642.81;5009441;28;20041;-68
2023/05/28 08:26:42;;;;;;;12.75;5.43;;;;;;;19.76;51.67;96641.19;5017520;28;20037;-71
2023/05/28 08:29:08;;;;;;;14.40;5.68;;;;;;;20.52;50.50;96632.72;5017258;28;20124;-68
2023/05/28 08:31:33;;;;;;;10.57;5.32;;;;;;;21.00;48.89;96635.94;5022421;28;20038;-69
2023/05/28 08:33:58;;;;;;;11.93;5.40;;;;;;;19.89;51.48;96633.75;5022151;28;20075;-69
2023/05/28 08:36:24;;;;;;;14.05;5.07;;;;;;;22.22;46.93;96629.72;5031165;28;20196;-68
2023/05/28 08:38:50;;;;;;;11.25;5.47;;;;;;;23.53;46.83;96629.81;5021983;28;20049;-71
2023/05/28 08:41:15;;;;;;;11.73;5.63;;;;;;;24.11;44.77;96623.69;5016777;28;20041;-68
2023/05/28 08:43:42;;;;;;;12.48;5.25;;;;;;;24.84;43.26;96621.59;5023846;28;20135;-67
2023/05/28 08:46:07;;;;;;;12.40;5.43;;;;;;;25.33;42.43;96621.50;5023440;28;20435;-66
2023/05/28 08:48:34;;;;;;;16.45;5.80;;;;;;;25.66;40.39;96620.09;5022225;28;20073;-66
2023/05/28 08:51:01;;;;;;;12.65;5.13;;;;;;;24.74;42.55;96618.00;5015269;28;20109;-71
2023/05/28 08:53:31;;;;;;;15.50;5.28;;;;;;;24.77;43.19;96611.47;5021129;28;20052;-67
2023/05/28 08:55:59;;;;;;;14.50;5.50;;;;;;;24.17;43.45;96613.44;5022353;28;20159;-67
2023/05/28 08:58:25;;;;;;;13.27;5.57;;;;;;;23.55;44.00;96613.34;5017182;28;20511;-70
2023/05/28 09:00:51;;;;;;;10.27;4.90;;;;;;;23.99;43.30;96613.34;5020829;28;20056;-68
2023/05/28 09:03:18;;;;;;;12.07;5.22;;;;;;;24.50;42.91;96604.53;5032680;28;20076;-68
2023/05/28 09:05:44;;;;;;;14.02;5.45;;;;;;;25.18;42.37;96604.50;5014102;28;20087;-69
2023/05/28 09:08:10;;;;;;;12.63;4.97;;;;;;;25.23;42.42;96597.53;5006193;28;20103;-67
2023/05/28 09:10:37;;;;;;;15.45;5.80;;;;;;;24.16;43.67;96606.28;5017976;28;20107;-70
2023/05/28 09:13:04;;;;;;;14.38;5.88;;;;;;;24.01;44.56;96597.66;5018936;28;20045;-73
2023/05/28 09:15:30;;;;;;;14.20;4.80;;;;;;;24.69;43.45;96594.19;5021477;28;20103;-69
2023/05/28 09:17:58;;;;;;;13.75;5.93;;;;;;;23.92;44.30;96600.41;5021024;28;20137;-69
2023/05/28 09:20:24;;;;;;;14.75;5.60;;;;;;;24.28;44.81;96590.63;5016990;28;20052;-68
2023/05/28 09:23:07;;;;;;;17.10;5.45;;;;;;;23.98;44.65;96598.56;5020959;28;20042;-68
2023/05/28 09:25:36;;;;;;;12.80;5.07;;;;;;;23.60;46.26;96599.56;5020596;28;20131;-68
2023/05/28 09:28:02;;;;;;;18.17;5.97;;;;;;;23.78;45.90;96587.72;5020986;28;20105;-74
2023/05/28 09:30:29;;;;;;;14.07;6.00;;;;;;;23.60;45.16;96593.22;5019031;28;20045;-68
2023/05/28 09:33:05;;;;;;;16.80;6.35;;;;;;;23.66;44.84;96594.19;5021133;28;20175;-69
2023/05/28 09:35:31;;;;;;;14.48;6.35;;;;;;;23.93;44.18;96590.81;5012172;28;20052;-67
2023/05/28 09:38:05;;;;;;;12.18;5.45;;;;;;;24.14;43.93;96588.41;5021074;28;20041;-66
2023/05/28 09:40:31;;;;;;;13.18;5.50;;;;;;;24.12;43.38;96582.47;5020541;28;20080;-67
2023/05/28 09:42:57;;;;;;;12.88;6.00;;;;;;;23.89;44.45;96589.38;5020327;28;20235;-67
2023/05/28 09:45:27;;;;;;;11.18;5.57;;;;;;;24.14;43.24;96586.38;5013190;28;20169;-70
2023/05/28 09:47:53;;;;;;;14.90;5.18;;;;;;;24.79;41.89;96589.38;5023629;28;20188;-70
2023/05/28 09:50:19;;;;;;;19.27;5.93;;;;;;;24.21;43.12;96574.88;5019681;28;20435;-70
2023/05/28 09:52:46;;;;;;;11.57;5.45;;;;;;;24.13;43.49;96584.81;5025047;28;20053;-68
2023/05/28 09:55:20;;;;;;;14.88;5.55;;;;;;;23.48;44.35;96589.25;5020049;28;20042;-67
2023/05/28 09:58:06;;;;;;;12.43;5.35;;;;;;;23.44;44.86;96577.41;5037179;28;20072;-69
2023/05/28 10:01:03;;;;;;;15.30;5.80;;;;;;;23.84;44.33;96588.72;5023617;28;20045;-70
2023/05/28 10:03:48;;;;;;;12.40;5.55;;;;;;;23.54;44.54;96584.63;5012124;28;20068;-69
2023/05/28 10:06:18;;;;;;;15.77;6.05;;;;;;;23.65;44.52;96582.22;5022535;28;20052;-69
2023/05/28 10:08:51;;;;;;;14.55;5.88;;;;;;;24.17;43.24;96570.69;5035446;28;20053;-68
2023/05/28 10:11:22;;;;;;;14.85;5.75;;;;;;;24.41;42.36;96582.13;5029977;28;20040;-69
2023/05/28 10:13:48;;;;;;;10.85;5.38;;;;;;;24.20;42.13;96575.34;5035391;28;20061;-70
2023/05/28 10:16:14;;;;;;;12.82;4.93;;;;;;;24.01;42.82;96577.31;5036274;28;20140;-66
2023/05/28 10:18:42;;;;;;;16.17;5.40;;;;;;;24.34;42.36;96574.00;5040936;28;20061;-69
2023/05/28 10:21:09;;;;;;;13.95;5.68;;;;;;;24.64;43.25;96571.63;5034382;28;20042;-63
2023/05/28 10:23:35;;;;;;;13.15;5.50;;;;;;;24.57;42.93;96575.50;5040104;28;20065;-71
2023/05/28 10:26:01;;;;;;;12.77;5.63;;;;;;;24.41;44.04;96573.72;5056090;28;20041;-68
2023/05/28 10:28:29;;;;;;;11.23;5.05;;;;;;;24.86;41.83;96574.31;5035190;28;20141;-69
2023/05/28 10:31:06;;;;;;;8.98;4.75;;;;;;;25.00;41.03;96574.47;5023934;28;20112;-69
2023/05/28 10:33:41;;;;;;;13.23;5.22;;;;;;;25.18;41.08;96570.13;5028282;28;20107;-70
2023/05/28 10:36:14;;;;;;;10.05;5.05;;;;;;;25.16;41.47;96570.56;5034575;28;20059;-68
2023/05/28 10:39:04;;;;;;;12.77;5.00;;;;;;;25.68;40.31;96565.09;5015543;28;20056;-69
2023/05/28 10:41:42;;;;;;;8.93;4.20;;;;;;;26.20;39.24;96559.50;5050373;28;20418;-68
2023/05/28 10:44:07;;;;;;;11.68;4.50;;;;;;;26.47;38.59;96569.00;5023919;28;20041;-68
2023/05/28 10:46:40;;;;;;;10.32;4.75;;;;;;;26.79;37.71;96561.03;5004567;28;20044;-68
2023/05/28 10:49:14;;;;;;;10.02;4.28;;;;;;;26.89;37.66;96568.16;5030476;28;20046;-70
2023/05/28 10:51:56;;;;;;;8.70;4.57;;;;;;;27.08;36.99;96572.38;5041031;28;20051;-69
2023/05/28 10:54:35;;;;;;;11.60;5.35;;;;;;;25.66;39.91;96559.19;5021562;28;20037;-70
2023/05/28 10:57:23;;;;;;;11.57;5.00;;;;;;;24.89;41.40;96557.34;5038689;28;20053;-69
2023/05/28 11:00:13;;;;;;;13.45;4.72;;;;;;;24.73;42.79;96555.63;5036360;28;20139;-73
2023/05/28 11:02:39;;;;;;;;;;;;;;;23.99;37.71;96560.22;5038340;28;20516;-69
2023/05/28 11:05:05;;;;;;;11.45;3.88;;;;;;;24.66;37.82;96553.13;5035834;28;19924;-65
2023/05/28 11:07:38;;;;;;;11.45;4.10;;;;;;;25.50;36.75;96560.31;5043839;28;20052;-71
2023/05/28 11:10:14;;;;;;;11.93;4.10;;;;;;;25.09;36.53;96556.09;5131066;23;20037;-66
2023/05/28 11:12:44;;;;;;;10.05;4.00;;;;;;;24.65;35.83;96559.19;5009323;28;20056;-68
2023/05/28 11:15:38;;;;;;;11.50;4.10;;;;;;;24.47;36.47;96552.28;5002709;28;20042;-68
2023/05/28 11:18:20;;;;;;;10.20;4.03;;;;;;;23.31;37.19;96557.94;5033130;28;20052;-67
2023/05/28 11:20:46;;;;;;;11.43;4.20;;;;;;;22.80;38.42;96552.53;5041156;28;20092;-67
2023/05/28 11:23:16;;;;;;;12.52;4.25;;;;;;;23.11;37.11;96552.66;5019681;28;20034;-69
2023/05/28 11:25:41;;;;;;;;;;;;;;;23.50;37.48;96544.88;5026465;28;20041;-68
2023/05/28 11:28:08;;;;;;;12.10;3.80;;;;;;;23.62;36.87;96544.00;5052455;28;19932;-67